Aviation Digital Data Service (ADDS)

Output produced by METARs form (1121 UTC 28 July 2021)
found at http://aviationweather.gov/metar/data/
 
METAR text: KDKB 281115Z AUTO 16005KT 7SM BKN080 22/22 A3007 RMK AO2 LTG DSNT SE T02150215
Conditions at: KDKB (DE KALB , IL, US) observed 1115 UTC 28 July 2021
Temperature: 21.5°C (71°F)
Dewpoint: 21.5°C (71°F) [RH = 100%]
Pressure (altimeter): 30.07 inches Hg (1018.4 mb)
Winds: from the SSE (160 degrees) at 6 MPH (5 knots; 2.6 m/s)
Visibility: 7 miles (11 km)
Ceiling: 8000 feet AGL
Clouds: broken clouds at 8000 feet AGL
Weather: automated observation with no human augmentation;
there may or may not be significant weather present at this time